createdAt,value
2018-09-08T00:00:21.930Z,5.50
2018-09-08T00:01:21.929Z,6.10
2018-09-08T00:02:21.926Z,6.20
2018-09-08T00:03:21.922Z,6.00
2018-09-08T00:04:21.925Z,6.00
2018-09-08T00:05:21.923Z,5.60
2018-09-08T00:06:21.967Z,5.80
2018-09-08T00:07:21.919Z,5.70
2018-09-08T00:08:21.919Z,5.80
2018-09-08T00:09:21.916Z,6.00
2018-09-08T00:10:21.914Z,5.90
2018-09-08T00:11:21.916Z,5.40
2018-09-08T00:12:21.915Z,5.80
2018-09-08T00:13:21.915Z,5.50
2018-09-08T00:14:21.911Z,6.00
2018-09-08T00:15:21.910Z,5.50
2018-09-08T00:16:21.908Z,5.70
2018-09-08T00:17:21.905Z,5.90
2018-09-08T00:18:21.903Z,5.60
2018-09-08T00:19:21.902Z,5.70
2018-09-08T00:20:21.902Z,5.90
2018-09-08T00:21:21.902Z,5.50
2018-09-08T00:22:21.901Z,5.30
2018-09-08T00:23:21.899Z,5.70
2018-09-08T00:24:21.895Z,5.00
2018-09-08T00:25:21.894Z,5.30
2018-09-08T00:26:21.893Z,4.90
2018-09-08T00:27:21.888Z,5.20
2018-09-08T00:28:21.888Z,5.00
2018-09-08T00:29:21.887Z,5.20
2018-09-08T00:30:21.882Z,5.10
2018-09-08T00:31:21.884Z,5.20
2018-09-08T00:32:21.883Z,5.20
2018-09-08T00:33:21.881Z,5.10
2018-09-08T00:34:21.880Z,4.80
2018-09-08T00:35:21.878Z,4.70
2018-09-08T00:36:21.874Z,4.50
2018-09-08T00:37:21.875Z,4.80
2018-09-08T00:38:21.905Z,4.80
2018-09-08T00:39:21.869Z,4.60
2018-09-08T00:40:21.868Z,4.80
2018-09-08T00:41:21.868Z,4.80
2018-09-08T00:42:21.868Z,4.50
2018-09-08T00:43:21.868Z,4.40
2018-09-08T00:44:21.862Z,4.70
2018-09-08T00:45:21.862Z,4.40
2018-09-08T00:46:21.860Z,4.20
2018-09-08T00:47:21.859Z,4.60
2018-09-08T00:48:21.854Z,4.50
2018-09-08T00:49:21.854Z,5.60
2018-09-08T00:50:21.850Z,4.80
2018-09-08T00:51:21.851Z,4.50
2018-09-08T00:52:21.846Z,4.60
2018-09-08T00:53:21.845Z,4.80
2018-09-08T00:54:21.841Z,4.30
2018-09-08T00:55:21.844Z,4.50
2018-09-08T00:56:21.839Z,4.00
2018-09-08T00:57:21.839Z,4.20
2018-09-08T00:58:21.836Z,4.00
2018-09-08T00:59:21.835Z,4.30
2018-09-08T01:00:21.836Z,3.90
2018-09-08T01:01:21.830Z,4.30
2018-09-08T01:02:21.834Z,5.00
2018-09-08T01:03:21.826Z,4.30
2018-09-08T01:04:21.832Z,4.20
2018-09-08T01:05:21.832Z,4.10
2018-09-08T01:06:21.823Z,3.90
2018-09-08T01:07:21.817Z,4.20
2018-09-08T01:08:21.817Z,4.90
2018-09-08T01:09:21.816Z,4.00
2018-09-08T01:10:21.813Z,4.30
2018-09-08T01:11:21.811Z,4.40
2018-09-08T01:12:21.811Z,4.30
2018-09-08T01:13:21.807Z,4.40
2018-09-08T01:14:21.804Z,4.90
2018-09-08T01:15:21.803Z,4.30
2018-09-08T01:16:22.606Z,4.70
2018-09-08T01:17:21.800Z,4.70
2018-09-08T01:18:21.796Z,4.80
2018-09-08T01:19:21.796Z,5.10
2018-09-08T01:20:21.796Z,4.40
2018-09-08T01:21:21.793Z,5.00
2018-09-08T01:22:21.791Z,5.10
2018-09-08T01:23:21.788Z,4.40
2018-09-08T01:24:21.788Z,4.50
2018-09-08T01:25:21.787Z,4.30
2018-09-08T01:26:21.781Z,4.30
2018-09-08T01:27:21.777Z,4.60
2018-09-08T01:28:21.779Z,4.70
2018-09-08T01:29:21.776Z,4.60
2018-09-08T01:30:21.777Z,4.50
2018-09-08T01:31:21.773Z,4.30
2018-09-08T01:32:21.769Z,4.10
2018-09-08T01:33:21.769Z,4.10
2018-09-08T01:34:21.764Z,4.20
2018-09-08T01:35:21.762Z,4.20
2018-09-08T01:36:21.760Z,4.40
2018-09-08T01:37:21.760Z,4.30
2018-09-08T01:38:21.757Z,3.80
2018-09-08T01:39:21.754Z,4.30
2018-09-08T01:40:21.753Z,4.10
2018-09-08T01:41:21.750Z,4.20
2018-09-08T01:42:21.750Z,4.00
2018-09-08T01:43:21.747Z,3.80
2018-09-08T01:44:21.746Z,4.00
2018-09-08T01:45:21.747Z,4.00
2018-09-08T01:46:21.741Z,3.90
2018-09-08T01:47:21.740Z,4.30
2018-09-08T01:48:21.739Z,3.90
2018-09-08T01:49:21.738Z,3.70
2018-09-08T01:50:21.736Z,3.80
2018-09-08T01:51:21.731Z,4.10
2018-09-08T01:52:21.732Z,3.90
2018-09-08T01:53:21.729Z,3.90
2018-09-08T01:54:21.728Z,4.00
2018-09-08T01:55:21.725Z,3.60
2018-09-08T01:56:21.724Z,3.70
2018-09-08T01:57:21.723Z,3.90
2018-09-08T01:58:21.720Z,3.90
2018-09-08T01:59:21.715Z,3.70
2018-09-08T02:00:21.716Z,3.50
2018-09-08T02:01:21.716Z,3.40
2018-09-08T02:02:21.727Z,3.80
2018-09-08T02:03:21.709Z,3.60
2018-09-08T02:04:21.713Z,3.50
2018-09-08T02:05:21.708Z,3.40
2018-09-08T02:06:21.706Z,3.70
2018-09-08T02:07:21.707Z,3.40
2018-09-08T02:08:21.704Z,3.70
2018-09-08T02:09:21.702Z,3.90
2018-09-08T02:10:21.699Z,3.70
2018-09-08T02:11:21.697Z,4.30
2018-09-08T02:12:21.698Z,3.70
2018-09-08T02:13:21.693Z,3.70
2018-09-08T02:14:21.692Z,3.80
2018-09-08T02:15:21.687Z,3.50
2018-09-08T02:16:21.686Z,3.50
2018-09-08T02:17:21.692Z,3.40
2018-09-08T02:18:21.692Z,4.20
2018-09-08T02:19:21.681Z,3.30
2018-09-08T02:20:21.678Z,3.20
2018-09-08T02:21:21.678Z,3.00
2018-09-08T02:22:21.680Z,3.50
2018-09-08T02:23:21.674Z,3.30
2018-09-08T02:24:21.671Z,3.20
2018-09-08T02:25:21.733Z,3.10
2018-09-08T02:26:21.677Z,3.30
2018-09-08T02:27:21.667Z,4.60
2018-09-08T02:28:21.667Z,3.40
2018-09-08T02:29:21.663Z,3.20
2018-09-08T02:30:21.660Z,4.10
2018-09-08T02:31:21.662Z,3.60
2018-09-08T02:32:21.659Z,3.80
2018-09-08T02:33:21.657Z,3.90
2018-09-08T02:34:21.655Z,4.80
2018-09-08T02:35:21.651Z,3.80
2018-09-08T02:36:21.648Z,3.50
2018-09-08T02:37:21.644Z,3.30
2018-09-08T02:38:21.649Z,3.40
2018-09-08T02:39:21.644Z,3.40
2018-09-08T02:40:21.643Z,3.30
2018-09-08T02:41:21.640Z,3.40
2018-09-08T02:42:21.637Z,3.30
2018-09-08T02:43:21.633Z,3.40
2018-09-08T02:44:21.633Z,3.40
2018-09-08T02:45:21.630Z,3.80
2018-09-08T02:46:21.628Z,3.20
2018-09-08T02:47:21.626Z,3.50
2018-09-08T02:48:21.627Z,3.40
2018-09-08T02:49:21.621Z,3.40
2018-09-08T02:50:21.620Z,3.30
2018-09-08T02:51:21.618Z,3.50
2018-09-08T02:52:22.132Z,3.40
2018-09-08T02:53:21.623Z,4.00
2018-09-08T02:54:21.613Z,3.60
2018-09-08T02:55:21.611Z,3.50
2018-09-08T02:56:21.607Z,3.90
2018-09-08T02:57:21.608Z,3.50
2018-09-08T02:58:21.604Z,3.50
2018-09-08T02:59:21.602Z,3.30
2018-09-08T03:00:21.601Z,3.50
2018-09-08T03:01:21.597Z,3.30
2018-09-08T03:02:21.598Z,3.60
2018-09-08T03:03:21.590Z,3.70
2018-09-08T03:04:21.589Z,3.60
2018-09-08T03:05:21.592Z,4.60
2018-09-08T03:06:22.134Z,3.50
2018-09-08T03:07:21.582Z,3.80
2018-09-08T03:08:21.584Z,3.60
2018-09-08T03:09:21.579Z,3.70
2018-09-08T03:10:21.576Z,3.50
2018-09-08T03:11:21.575Z,3.60
2018-09-08T03:12:21.575Z,4.10
2018-09-08T03:13:21.565Z,3.40
2018-09-08T03:14:21.567Z,3.30
2018-09-08T03:15:21.564Z,3.30
2018-09-08T03:16:21.561Z,3.30
2018-09-08T03:17:21.561Z,3.50
2018-09-08T03:18:21.556Z,3.50
2018-09-08T03:19:21.553Z,3.80
2018-09-08T03:20:21.551Z,3.40
2018-09-08T03:21:21.548Z,3.20
2018-09-08T03:22:21.549Z,3.30
2018-09-08T03:23:21.546Z,4.10
2018-09-08T03:24:21.540Z,4.50
2018-09-08T03:25:21.537Z,3.90
2018-09-08T03:26:21.539Z,3.10
2018-09-08T03:27:21.532Z,3.70
2018-09-08T03:28:21.531Z,3.40
2018-09-08T03:29:21.529Z,3.30
2018-09-08T03:30:21.527Z,3.80
2018-09-08T03:31:21.524Z,3.80
2018-09-08T03:32:21.520Z,3.50
2018-09-08T03:33:21.521Z,3.70
2018-09-08T03:34:21.515Z,3.70
2018-09-08T03:35:21.515Z,4.00
2018-09-08T03:36:21.511Z,3.70
2018-09-08T03:37:21.509Z,4.30
2018-09-08T03:38:21.505Z,3.50
2018-09-08T03:39:22.146Z,3.70
2018-09-08T03:40:21.500Z,3.30
2018-09-08T03:41:21.498Z,4.70
2018-09-08T03:42:21.505Z,3.60
2018-09-08T03:43:21.491Z,3.40
2018-09-08T03:44:21.489Z,3.80
2018-09-08T03:45:21.487Z,3.60
2018-09-08T03:46:21.485Z,3.50
2018-09-08T03:47:21.485Z,3.60
2018-09-08T03:48:21.479Z,3.60
2018-09-08T03:49:21.478Z,3.50
2018-09-08T03:50:21.476Z,3.80
2018-09-08T03:51:21.469Z,3.90
2018-09-08T03:52:21.470Z,3.70
2018-09-08T03:53:21.465Z,3.70
2018-09-08T03:54:21.462Z,3.50
2018-09-08T03:55:21.461Z,4.00
2018-09-08T03:56:21.460Z,3.60
2018-09-08T03:57:21.456Z,3.60
2018-09-08T03:58:21.451Z,3.50
2018-09-08T03:59:21.448Z,3.40
2018-09-08T04:00:21.442Z,3.80
2018-09-08T04:01:21.448Z,3.70
2018-09-08T04:02:21.442Z,3.40
2018-09-08T04:03:21.436Z,3.40
2018-09-08T04:04:21.435Z,3.90
2018-09-08T04:05:21.433Z,4.50
2018-09-08T04:06:21.432Z,3.90
2018-09-08T04:07:21.426Z,4.30
2018-09-08T04:08:21.424Z,3.70
2018-09-08T04:09:21.422Z,4.00
2018-09-08T04:10:21.419Z,4.40
2018-09-08T04:11:21.508Z,4.90
2018-09-08T04:12:21.413Z,4.00
2018-09-08T04:13:21.409Z,3.80
2018-09-08T04:14:21.406Z,3.80
2018-09-08T04:15:21.411Z,3.70
2018-09-08T04:16:21.401Z,4.20
2018-09-08T04:17:21.398Z,4.00
2018-09-08T04:18:21.398Z,4.00
2018-09-08T04:19:21.393Z,3.60
2018-09-08T04:20:21.391Z,3.70
2018-09-08T04:21:21.388Z,3.70
2018-09-08T04:22:21.384Z,3.90
2018-09-08T04:23:21.380Z,3.80
2018-09-08T04:24:21.378Z,4.00
2018-09-08T04:25:21.378Z,3.80
2018-09-08T04:26:21.374Z,5.00
2018-09-08T04:27:21.369Z,4.70
2018-09-08T04:28:21.366Z,4.60
2018-09-08T04:29:21.370Z,4.00
2018-09-08T04:30:21.359Z,4.40
2018-09-08T04:31:21.361Z,4.40
2018-09-08T04:32:21.360Z,4.40
2018-09-08T04:33:21.352Z,4.40
2018-09-08T04:34:21.349Z,4.60
2018-09-08T04:35:21.347Z,4.50
2018-09-08T04:36:21.342Z,4.40
2018-09-08T04:37:21.341Z,4.50
2018-09-08T04:38:21.337Z,4.30
2018-09-08T04:39:21.332Z,4.20
2018-09-08T04:40:21.327Z,4.70
2018-09-08T04:41:21.328Z,4.70
2018-09-08T04:42:21.320Z,4.70
2018-09-08T04:43:21.320Z,4.50
2018-09-08T04:44:21.317Z,4.50
2018-09-08T04:45:21.314Z,4.80
2018-09-08T04:46:21.318Z,4.30
2018-09-08T04:47:21.307Z,4.20
2018-09-08T04:48:21.306Z,4.20
2018-09-08T04:49:21.397Z,4.20
2018-09-08T04:50:21.300Z,4.50
2018-09-08T04:51:21.295Z,5.00
2018-09-08T04:52:21.293Z,4.30
2018-09-08T04:53:21.288Z,4.50
2018-09-08T04:54:21.296Z,4.30
2018-09-08T04:55:21.283Z,4.40
2018-09-08T04:56:21.279Z,4.50
2018-09-08T04:57:21.277Z,4.30
2018-09-08T04:58:21.274Z,4.40
2018-09-08T04:59:21.276Z,5.30
2018-09-08T05:00:21.270Z,4.50
2018-09-08T05:01:21.263Z,5.20
2018-09-08T05:02:21.291Z,4.60
2018-09-08T05:03:21.258Z,5.80
2018-09-08T05:04:21.253Z,5.70
2018-09-08T05:05:21.252Z,7.30
2018-09-08T05:06:21.250Z,5.40
2018-09-08T05:07:21.246Z,6.10
2018-09-08T05:08:21.243Z,4.40
2018-09-08T05:09:21.241Z,5.60
2018-09-08T05:10:21.237Z,5.90
2018-09-08T05:11:21.231Z,7.00
2018-09-08T05:12:21.232Z,6.20
2018-09-08T05:13:21.233Z,6.10
2018-09-08T05:14:21.226Z,5.80
2018-09-08T05:15:21.221Z,5.60
2018-09-08T05:16:21.219Z,6.00
2018-09-08T05:17:21.215Z,6.60
2018-09-08T05:18:21.212Z,5.40
2018-09-08T05:19:21.208Z,5.20
2018-09-08T05:20:21.205Z,5.00
2018-09-08T05:21:21.204Z,5.30
2018-09-08T05:22:21.200Z,4.60
2018-09-08T05:23:21.195Z,5.20
2018-09-08T05:24:21.204Z,5.30
2018-09-08T05:25:21.190Z,5.40
2018-09-08T05:26:21.188Z,5.00
2018-09-08T05:27:21.191Z,5.20
2018-09-08T05:28:21.182Z,5.20
2018-09-08T05:29:21.178Z,5.70
2018-09-08T05:30:21.185Z,5.00
2018-09-08T05:31:21.173Z,4.60
2018-09-08T05:32:21.170Z,4.80
2018-09-08T05:33:21.168Z,4.30
2018-09-08T05:34:21.171Z,4.90
2018-09-08T05:35:21.165Z,5.20
2018-09-08T05:36:21.164Z,6.20
2018-09-08T05:37:21.152Z,6.20
2018-09-08T05:38:21.157Z,6.10
2018-09-08T05:39:21.151Z,6.00
2018-09-08T05:40:21.150Z,6.90
2018-09-08T05:41:21.145Z,6.60
2018-09-08T05:42:21.145Z,6.00
2018-09-08T05:43:21.141Z,6.30
2018-09-08T05:44:21.144Z,6.60
2018-09-08T05:45:21.139Z,6.50
2018-09-08T05:46:21.136Z,7.00
2018-09-08T05:47:21.134Z,6.10
2018-09-08T05:48:21.131Z,6.30
2018-09-08T05:49:21.128Z,5.90
2018-09-08T05:50:21.129Z,7.10
2018-09-08T05:51:21.131Z,6.30
2018-09-08T05:52:21.125Z,6.00
2018-09-08T05:53:21.124Z,6.50
2018-09-08T05:54:21.129Z,6.10
2018-09-08T05:55:21.126Z,6.50
2018-09-08T05:56:21.119Z,5.50
2018-09-08T05:57:21.122Z,5.70
2018-09-08T05:58:21.187Z,5.50
2018-09-08T05:59:21.121Z,5.40
2018-09-08T06:00:21.119Z,5.40
2018-09-08T06:01:21.125Z,5.10
2018-09-08T06:02:21.125Z,5.30
2018-09-08T06:03:21.119Z,5.20
2018-09-08T06:04:21.119Z,5.60
2018-09-08T06:05:21.123Z,4.80
2018-09-08T06:06:21.127Z,4.60
2018-09-08T06:07:21.123Z,4.80
2018-09-08T06:08:21.119Z,4.90
2018-09-08T06:09:21.127Z,4.30
2018-09-08T06:10:21.179Z,4.30
2018-09-08T06:11:21.120Z,4.40
2018-09-08T06:12:21.128Z,3.90
2018-09-08T06:13:21.124Z,4.00
2018-09-08T06:14:21.126Z,4.40
2018-09-08T06:15:21.130Z,4.10
2018-09-08T06:16:21.127Z,6.60
2018-09-08T06:17:21.151Z,3.80
2018-09-08T06:18:21.193Z,3.90
2018-09-08T06:19:21.132Z,5.20
2018-09-08T06:20:21.135Z,4.40
2018-09-08T06:21:21.133Z,4.10
2018-09-08T06:22:21.138Z,3.70
2018-09-08T06:23:21.134Z,3.70
2018-09-08T06:24:21.172Z,3.80
2018-09-08T06:25:21.193Z,3.70
2018-09-08T06:26:21.144Z,3.50
2018-09-08T06:27:21.145Z,3.70
2018-09-08T06:28:21.157Z,3.40
2018-09-08T06:29:21.149Z,4.50
2018-09-08T06:30:21.149Z,4.70
2018-09-08T06:31:21.152Z,3.60
2018-09-08T06:32:21.158Z,3.80
2018-09-08T06:33:21.171Z,5.00
2018-09-08T06:34:21.159Z,4.80
2018-09-08T06:35:21.251Z,3.50
2018-09-08T06:36:21.180Z,4.30
2018-09-08T06:37:21.173Z,3.20
2018-09-08T06:38:21.170Z,3.40
2018-09-08T06:39:21.168Z,3.60
2018-09-08T06:40:21.170Z,3.30
2018-09-08T06:41:21.175Z,3.30
2018-09-08T06:42:21.180Z,3.00
2018-09-08T06:43:21.178Z,3.10
2018-09-08T06:44:21.185Z,4.30
2018-09-08T06:45:21.184Z,3.10
2018-09-08T06:46:21.187Z,2.90
2018-09-08T06:47:21.188Z,2.90
2018-09-08T06:48:21.195Z,4.00
2018-09-08T06:49:21.199Z,3.50
2018-09-08T06:50:21.197Z,2.90
2018-09-08T06:51:21.201Z,3.30
2018-09-08T06:52:21.261Z,2.40
2018-09-08T06:53:21.207Z,2.80
2018-09-08T06:54:21.211Z,3.80
2018-09-08T06:55:21.209Z,3.40
2018-09-08T06:56:21.211Z,2.90
2018-09-08T06:57:21.218Z,2.40
2018-09-08T06:58:21.220Z,3.30
2018-09-08T06:59:21.225Z,3.50
2018-09-08T07:00:21.228Z,3.60
2018-09-08T07:01:21.232Z,2.40
2018-09-08T07:02:21.236Z,2.20
2018-09-08T07:03:21.267Z,2.70
2018-09-08T07:04:21.246Z,3.40
2018-09-08T07:05:21.246Z,3.00
2018-09-08T07:06:21.248Z,2.40
2018-09-08T07:07:21.250Z,2.50
2018-09-08T07:08:21.255Z,3.50
2018-09-08T07:09:21.261Z,2.80
2018-09-08T07:10:21.266Z,4.60
2018-09-08T07:11:21.269Z,3.30
2018-09-08T07:12:21.271Z,4.10
2018-09-08T07:13:21.275Z,2.60
2018-09-08T07:14:21.284Z,2.90
2018-09-08T07:15:21.282Z,2.30
2018-09-08T07:16:21.284Z,2.00
2018-09-08T07:17:21.290Z,2.50
2018-09-08T07:18:21.296Z,3.70
2018-09-08T07:19:21.298Z,2.80
2018-09-08T07:20:21.304Z,2.10
2018-09-08T07:21:21.306Z,5.20
2018-09-08T07:22:21.311Z,2.70
2018-09-08T07:23:21.315Z,2.00
2018-09-08T07:24:21.319Z,1.80
2018-09-08T07:25:21.324Z,3.00
2018-09-08T07:26:21.327Z,3.40
2018-09-08T07:27:21.326Z,2.10
2018-09-08T07:28:21.331Z,1.80
2018-09-08T07:29:21.339Z,2.90
2018-09-08T07:30:21.343Z,2.30
2018-09-08T07:31:21.346Z,2.60
2018-09-08T07:32:21.358Z,2.40
2018-09-08T07:33:21.353Z,2.80
2018-09-08T07:34:21.357Z,2.10
2018-09-08T07:35:21.359Z,2.50
2018-09-08T07:36:21.368Z,3.80
2018-09-08T07:37:21.434Z,4.60
2018-09-08T07:38:21.370Z,2.20
2018-09-08T07:39:21.373Z,2.60
2018-09-08T07:40:21.379Z,2.90
2018-09-08T07:41:21.379Z,2.10
2018-09-08T07:42:21.383Z,3.10
2018-09-08T07:43:21.384Z,2.20
2018-09-08T07:44:21.383Z,2.20
2018-09-08T07:45:21.388Z,2.80
2018-09-08T07:46:21.388Z,3.60
2018-09-08T07:47:21.389Z,1.90
2018-09-08T07:48:21.397Z,2.40
2018-09-08T07:49:21.393Z,3.00
2018-09-08T07:50:21.397Z,3.60
2018-09-08T07:51:21.397Z,2.50
2018-09-08T07:52:21.399Z,1.70
2018-09-08T07:53:21.465Z,3.40
2018-09-08T07:54:21.404Z,3.30
2018-09-08T07:55:21.415Z,1.80
2018-09-08T07:56:21.404Z,3.40
2018-09-08T07:57:21.405Z,4.00
2018-09-08T07:58:21.411Z,2.90
2018-09-08T07:59:21.476Z,2.40
2018-09-08T08:00:21.413Z,3.40
2018-09-08T08:01:21.412Z,2.10
2018-09-08T08:02:21.409Z,3.40
2018-09-08T08:03:21.415Z,2.60
2018-09-08T08:04:21.414Z,1.80
2018-09-08T08:05:21.415Z,2.80
2018-09-08T08:06:21.419Z,2.10
2018-09-08T08:07:21.416Z,3.40
2018-09-08T08:08:21.422Z,3.20
2018-09-08T08:09:21.420Z,1.70
2018-09-08T08:10:21.420Z,3.00
2018-09-08T08:11:21.423Z,2.70
2018-09-08T08:12:22.299Z,2.10
2018-09-08T08:13:21.422Z,2.60
2018-09-08T08:14:21.458Z,3.80
2018-09-08T08:15:21.418Z,1.60
2018-09-08T08:16:21.422Z,2.10
2018-09-08T08:17:21.427Z,1.70
2018-09-08T08:18:21.425Z,2.60
2018-09-08T08:19:21.429Z,2.90
2018-09-08T08:20:21.425Z,3.50
2018-09-08T08:21:21.429Z,3.60
2018-09-08T08:22:21.437Z,3.60
2018-09-08T08:23:21.548Z,2.90
2018-09-08T08:24:21.433Z,2.20
2018-09-08T08:25:21.433Z,3.20
2018-09-08T08:26:21.437Z,2.70
2018-09-08T08:27:21.439Z,1.80
2018-09-08T08:28:21.432Z,3.90
2018-09-08T08:29:21.434Z,2.20
2018-09-08T08:30:21.434Z,3.20
2018-09-08T08:31:21.436Z,2.10
2018-09-08T08:32:21.438Z,2.40
2018-09-08T08:33:21.436Z,2.80
2018-09-08T08:34:21.440Z,2.80
2018-09-08T08:35:21.440Z,4.40
2018-09-08T08:36:21.441Z,2.40
2018-09-08T08:37:21.485Z,2.10
2018-09-08T08:38:21.443Z,2.60
2018-09-08T08:39:21.440Z,1.90
2018-09-08T08:40:21.442Z,2.40
2018-09-08T08:41:21.439Z,2.80
2018-09-08T08:42:21.442Z,3.20
2018-09-08T08:43:21.505Z,2.80
2018-09-08T08:44:21.443Z,3.90
2018-09-08T08:45:21.446Z,4.10
2018-09-08T08:46:21.441Z,3.20
2018-09-08T08:47:21.444Z,2.40
2018-09-08T08:48:21.446Z,2.30
2018-09-08T08:49:21.447Z,2.00
2018-09-08T08:50:21.449Z,2.00
2018-09-08T08:51:21.449Z,3.30
2018-09-08T08:52:21.463Z,2.00
2018-09-08T08:53:21.448Z,2.60
2018-09-08T08:54:21.457Z,2.20
2018-09-08T08:55:21.451Z,2.30
2018-09-08T08:56:22.237Z,5.30
2018-09-08T08:57:21.449Z,3.80
2018-09-08T08:58:21.455Z,4.60
2018-09-08T08:59:21.450Z,2.00
2018-09-08T09:00:21.452Z,2.90
2018-09-08T09:01:21.452Z,3.40
2018-09-08T09:02:21.453Z,3.40
2018-09-08T09:03:21.456Z,4.70
2018-09-08T09:04:21.452Z,3.70
2018-09-08T09:05:21.454Z,5.40
2018-09-08T09:06:21.455Z,4.50
2018-09-08T09:07:21.452Z,3.90
2018-09-08T09:08:21.812Z,3.40
2018-09-08T09:09:21.457Z,3.00
2018-09-08T09:10:21.460Z,4.30
2018-09-08T09:11:21.456Z,3.60
2018-09-08T09:12:21.472Z,4.70
2018-09-08T09:13:21.510Z,3.70
2018-09-08T09:14:21.462Z,3.90
2018-09-08T09:15:21.846Z,3.50
2018-09-08T09:16:21.461Z,3.70
2018-09-08T09:17:21.461Z,3.00
2018-09-08T09:18:21.730Z,3.10
2018-09-08T09:19:21.461Z,2.50
2018-09-08T09:20:21.462Z,3.10
2018-09-08T09:21:21.465Z,3.20
2018-09-08T09:22:21.466Z,2.70
2018-09-08T09:23:21.515Z,3.40
2018-09-08T09:24:21.967Z,4.80
2018-09-08T09:25:21.469Z,3.60
2018-09-08T09:26:21.468Z,2.80
2018-09-08T09:27:21.468Z,4.80
2018-09-08T09:28:21.469Z,3.90
2018-09-08T09:29:21.468Z,3.40
2018-09-08T09:30:21.470Z,3.10
2018-09-08T09:31:21.470Z,3.30
2018-09-08T09:32:21.475Z,2.90
2018-09-08T09:33:21.474Z,4.20
2018-09-08T09:34:21.476Z,5.60
2018-09-08T09:35:21.476Z,3.30
2018-09-08T09:36:21.475Z,2.60
2018-09-08T09:37:21.538Z,4.00
2018-09-08T09:38:21.477Z,3.10
2018-09-08T09:39:21.477Z,3.90
2018-09-08T09:40:21.481Z,3.50
2018-09-08T09:41:21.475Z,2.70
2018-09-08T09:42:21.485Z,2.60
2018-09-08T09:43:21.481Z,3.00
2018-09-08T09:44:21.529Z,3.30
2018-09-08T09:45:21.486Z,5.20
2018-09-08T09:46:21.485Z,3.90
2018-09-08T09:47:21.484Z,4.40
2018-09-08T09:48:21.492Z,4.40
2018-09-08T09:49:21.486Z,3.80
2018-09-08T09:50:21.487Z,3.30
2018-09-08T09:51:21.490Z,2.70
2018-09-08T09:52:21.489Z,3.30
2018-09-08T09:53:21.489Z,3.50
2018-09-08T09:54:21.493Z,3.00
2018-09-08T09:55:21.496Z,3.10
2018-09-08T09:56:21.490Z,3.20
2018-09-08T09:57:21.497Z,3.50
2018-09-08T09:58:21.507Z,3.40
2018-09-08T09:59:21.497Z,3.90
2018-09-08T10:00:21.505Z,4.70
2018-09-08T10:01:21.501Z,3.30
2018-09-08T10:02:21.501Z,2.10
2018-09-08T10:03:21.499Z,2.60
2018-09-08T10:04:21.503Z,3.50
2018-09-08T10:05:21.508Z,2.90
2018-09-08T10:06:21.502Z,3.60
2018-09-08T10:07:21.499Z,3.20
2018-09-08T10:08:21.502Z,2.90
2018-09-08T10:09:21.508Z,3.30
2018-09-08T10:10:21.514Z,3.00
2018-09-08T10:11:21.504Z,2.40
2018-09-08T10:12:21.508Z,2.00
2018-09-08T10:13:21.527Z,3.80
2018-09-08T10:14:21.515Z,4.20
2018-09-08T10:15:21.512Z,2.90
2018-09-08T10:16:21.512Z,5.60
2018-09-08T10:17:21.511Z,2.90
2018-09-08T10:18:21.517Z,2.10
2018-09-08T10:19:21.517Z,3.40
2018-09-08T10:20:21.517Z,3.00
2018-09-08T10:21:21.517Z,3.80
2018-09-08T10:22:21.519Z,3.20
2018-09-08T10:23:21.594Z,2.30
2018-09-08T10:24:21.522Z,3.00
2018-09-08T10:25:21.521Z,1.50
2018-09-08T10:26:21.581Z,3.50
2018-09-08T10:27:21.525Z,2.10
2018-09-08T10:28:21.524Z,1.60
2018-09-08T10:29:21.529Z,3.10
2018-09-08T10:30:21.535Z,2.90
2018-09-08T10:31:21.525Z,3.00
2018-09-08T10:32:21.528Z,2.00
2018-09-08T10:33:21.528Z,2.30
2018-09-08T10:34:21.525Z,2.80
2018-09-08T10:35:21.525Z,2.30
2018-09-08T10:36:21.537Z,2.60
2018-09-08T10:37:21.533Z,2.90
2018-09-08T10:38:21.534Z,3.20
2018-09-08T10:39:21.533Z,4.50
2018-09-08T10:40:21.540Z,2.50
2018-09-08T10:41:22.272Z,3.40
2018-09-08T10:42:21.535Z,4.00
2018-09-08T10:43:21.539Z,2.00
2018-09-08T10:44:21.538Z,2.20
2018-09-08T10:45:21.540Z,3.70
2018-09-08T10:46:21.542Z,3.00
2018-09-08T10:47:21.540Z,2.20
2018-09-08T10:48:21.546Z,2.20
2018-09-08T10:49:21.544Z,3.50
2018-09-08T10:50:21.545Z,3.90
2018-09-08T10:51:21.546Z,2.90
2018-09-08T10:52:21.546Z,2.00
2018-09-08T10:53:22.349Z,3.00
2018-09-08T10:54:21.549Z,1.40
2018-09-08T10:55:21.549Z,1.90
2018-09-08T10:56:21.550Z,2.70
2018-09-08T10:57:21.550Z,2.90
2018-09-08T10:58:21.555Z,2.60
2018-09-08T10:59:21.552Z,2.40
2018-09-08T11:00:21.554Z,1.10
2018-09-08T11:01:21.560Z,2.30
2018-09-08T11:02:21.773Z,1.20
2018-09-08T11:03:21.557Z,2.00
2018-09-08T11:04:22.354Z,2.10
2018-09-08T11:05:21.559Z,3.00
2018-09-08T11:06:21.563Z,2.00
2018-09-08T11:07:21.561Z,2.40
2018-09-08T11:08:21.563Z,2.50
2018-09-08T11:09:21.564Z,2.40
2018-09-08T11:10:21.567Z,1.50
2018-09-08T11:11:21.567Z,2.20
2018-09-08T11:12:21.568Z,1.50
2018-09-08T11:13:21.569Z,2.40
2018-09-08T11:14:21.572Z,2.20
2018-09-08T11:15:21.571Z,2.20
2018-09-08T11:16:21.574Z,2.20
2018-09-08T11:17:21.573Z,1.80
2018-09-08T11:18:21.578Z,0.90
2018-09-08T11:19:21.579Z,2.10
2018-09-08T11:20:21.581Z,1.80
2018-09-08T11:21:21.581Z,1.20
2018-09-08T11:22:21.580Z,2.20
2018-09-08T11:23:21.584Z,1.40
2018-09-08T11:24:21.605Z,1.60
2018-09-08T11:25:21.584Z,1.00
2018-09-08T11:26:21.588Z,2.60
2018-09-08T11:27:21.592Z,1.10
2018-09-08T11:28:21.589Z,1.60
2018-09-08T11:29:21.591Z,1.20
2018-09-08T11:30:21.590Z,2.80
2018-09-08T11:31:21.593Z,0.90
2018-09-08T11:32:21.595Z,0.80
2018-09-08T11:33:21.596Z,0.80
2018-09-08T11:34:21.601Z,1.90
2018-09-08T11:35:21.599Z,1.70
2018-09-08T11:36:21.601Z,1.90
2018-09-08T11:37:21.608Z,1.20
2018-09-08T11:38:21.693Z,3.10
2018-09-08T11:39:21.615Z,2.20
2018-09-08T11:40:21.608Z,1.60
2018-09-08T11:41:21.610Z,3.00
2018-09-08T11:42:21.610Z,1.70
2018-09-08T11:43:22.294Z,0.90
2018-09-08T11:44:21.612Z,1.80
2018-09-08T11:45:21.614Z,1.00
2018-09-08T11:46:21.616Z,1.00
2018-09-08T11:47:21.617Z,1.60
2018-09-08T11:48:21.619Z,1.10
2018-09-08T11:49:21.629Z,1.10
2018-09-08T11:50:22.368Z,3.60
2018-09-08T11:51:21.624Z,2.80
2018-09-08T11:52:21.626Z,2.00
2018-09-08T11:53:21.627Z,1.80
2018-09-08T11:54:21.628Z,1.10
2018-09-08T11:55:21.631Z,3.40
2018-09-08T11:56:21.632Z,2.00
2018-09-08T11:57:22.297Z,1.30
2018-09-08T11:58:21.635Z,2.20
2018-09-08T11:59:21.636Z,2.70
2018-09-08T12:00:21.636Z,1.40
2018-09-08T12:01:21.641Z,2.70
2018-09-08T12:02:21.642Z,1.60
2018-09-08T12:03:21.644Z,1.70
2018-09-08T12:04:21.643Z,2.40
2018-09-08T12:05:21.646Z,4.10
2018-09-08T12:06:21.653Z,2.60
2018-09-08T12:07:21.656Z,1.80
2018-09-08T12:08:21.659Z,2.00
2018-09-08T12:09:21.655Z,1.70
2018-09-08T12:10:21.656Z,2.70
2018-09-08T12:11:21.665Z,1.20
2018-09-08T12:12:21.658Z,2.30
2018-09-08T12:13:21.664Z,1.70
2018-09-08T12:14:21.663Z,1.70
2018-09-08T12:15:21.667Z,1.30
2018-09-08T12:16:21.666Z,2.70
2018-09-08T12:17:21.675Z,2.10
2018-09-08T12:18:21.672Z,2.90
2018-09-08T12:19:21.676Z,3.20
2018-09-08T12:20:21.676Z,2.30
2018-09-08T12:21:21.677Z,2.60
2018-09-08T12:22:21.680Z,1.20
2018-09-08T12:23:21.679Z,1.50
2018-09-08T12:24:21.681Z,2.10
2018-09-08T12:25:21.686Z,2.40
2018-09-08T12:26:21.694Z,2.10
2018-09-08T12:27:21.688Z,1.00
2018-09-08T12:28:21.691Z,2.40
2018-09-08T12:29:21.692Z,2.00
2018-09-08T12:30:21.703Z,1.30
2018-09-08T12:31:21.697Z,2.40
2018-09-08T12:32:21.756Z,2.60
2018-09-08T12:33:21.702Z,1.80
2018-09-08T12:34:21.704Z,1.10
2018-09-08T12:35:21.705Z,1.70
2018-09-08T12:36:21.705Z,1.90
2018-09-08T12:37:21.712Z,2.20
2018-09-08T12:38:21.712Z,1.70
2018-09-08T12:39:21.712Z,1.50
2018-09-08T12:40:21.715Z,1.30
2018-09-08T12:41:21.717Z,1.90
2018-09-08T12:42:21.721Z,1.00
2018-09-08T12:43:21.733Z,1.50
2018-09-08T12:44:21.725Z,1.70
2018-09-08T12:45:21.729Z,2.90
2018-09-08T12:46:21.725Z,1.10
2018-09-08T12:47:21.728Z,2.30
2018-09-08T12:48:21.732Z,2.70
2018-09-08T12:49:21.733Z,1.40
2018-09-08T12:50:21.741Z,2.30
2018-09-08T12:51:21.738Z,1.60
2018-09-08T12:52:21.755Z,2.30
2018-09-08T12:53:21.760Z,2.00
2018-09-08T12:54:22.390Z,1.20
2018-09-08T12:55:21.746Z,1.00
2018-09-08T12:56:21.751Z,1.80
2018-09-08T12:57:21.751Z,1.50
2018-09-08T12:58:21.753Z,2.90
2018-09-08T12:59:21.803Z,1.70
2018-09-08T13:00:21.758Z,2.10
2018-09-08T13:01:21.758Z,1.80
2018-09-08T13:02:21.763Z,2.60
2018-09-08T13:03:21.763Z,1.10
2018-09-08T13:04:21.766Z,2.50
2018-09-08T13:05:21.771Z,2.70
2018-09-08T13:06:21.771Z,1.30
2018-09-08T13:07:21.773Z,1.40
2018-09-08T13:08:21.773Z,1.20
2018-09-08T13:09:21.774Z,1.00
2018-09-08T13:10:21.777Z,2.40
2018-09-08T13:11:21.778Z,3.70
2018-09-08T13:12:21.782Z,1.10
2018-09-08T13:13:21.784Z,2.80
2018-09-08T13:14:21.808Z,1.50
2018-09-08T13:15:21.792Z,1.50
2018-09-08T13:16:21.790Z,1.20
2018-09-08T13:17:21.795Z,1.30
2018-09-08T13:18:21.795Z,6.00